createdAt,value
2018-11-12T00:00:01.246Z,100428.32
2018-11-12T00:02:34.717Z,100436.35
2018-11-12T00:05:08.364Z,100433.45
2018-11-12T00:07:41.992Z,100431.42
2018-11-12T00:10:15.560Z,100437.41
2018-11-12T00:12:49.531Z,100433.83
2018-11-12T00:15:23.501Z,100430.06
2018-11-12T00:17:57.053Z,100425.13
2018-11-12T00:20:30.701Z,100425.45
2018-11-12T00:23:04.311Z,100432.09
2018-11-12T00:25:37.758Z,100427.34
2018-11-12T00:28:11.348Z,100426.50
2018-11-12T00:30:44.777Z,100426.50
2018-11-12T00:33:17.400Z,100436.33
2018-11-12T00:35:50.416Z,100427.63
2018-11-12T00:38:24.535Z,100436.47
2018-11-12T00:40:58.268Z,100438.36
2018-11-12T00:43:31.765Z,100447.37
2018-11-12T00:46:05.370Z,100450.13
2018-11-12T00:48:38.750Z,100450.13
2018-11-12T00:51:12.476Z,100464.74
2018-11-12T00:53:46.050Z,100464.74
2018-11-12T00:56:20.387Z,100482.28
2018-11-12T00:58:54.051Z,100484.17
2018-11-12T01:01:27.711Z,100497.80
2018-11-12T01:04:01.857Z,100491.52
2018-11-12T01:06:34.487Z,100496.09
2018-11-12T01:09:09.369Z,100503.05
2018-11-12T01:11:43.279Z,100501.37
2018-11-12T01:14:17.280Z,100508.19
2018-11-12T01:16:51.372Z,100496.09
2018-11-12T01:19:24.780Z,100509.40
2018-11-12T01:21:58.489Z,100500.91
2018-11-12T01:24:32.043Z,100500.91
2018-11-12T01:27:05.569Z,100496.81
2018-11-12T01:29:39.373Z,100497.13
2018-11-12T01:32:13.053Z,100497.97
2018-11-12T01:34:46.575Z,100486.23
2018-11-12T01:37:20.316Z,100487.27
2018-11-12T01:39:53.978Z,100493.42
2018-11-12T01:42:27.540Z,100494.78
2018-11-12T01:45:00.689Z,100495.10
2018-11-12T01:48:15.474Z,100479.04
2018-11-12T01:50:48.548Z,100487.27
2018-11-12T01:53:21.573Z,100485.56
2018-11-12T01:55:54.580Z,100485.77
2018-11-12T01:58:27.680Z,100479.12
2018-11-12T02:01:01.281Z,100491.39
2018-11-12T02:03:34.464Z,100490.03
2018-11-12T02:06:07.645Z,100478.80
2018-11-12T02:08:40.578Z,100485.63
2018-11-12T02:11:13.553Z,100487.16
2018-11-12T02:13:46.664Z,100485.63
2018-11-12T02:16:19.712Z,100489.70
2018-11-12T02:18:53.482Z,100485.63
2018-11-12T02:21:26.458Z,100484.58
2018-11-12T02:24:00.282Z,100481.53
2018-11-12T02:26:33.397Z,100484.58
2018-11-12T02:29:06.744Z,100488.66
2018-11-12T02:31:40.481Z,100480.34
2018-11-12T02:34:14.053Z,100480.34
2018-11-12T02:36:47.557Z,100492.58
2018-11-12T02:39:21.045Z,100488.98
2018-11-12T02:41:55.026Z,100489.70
2018-11-12T02:44:28.532Z,100485.63
2018-11-12T02:47:02.282Z,100487.47
2018-11-12T02:49:36.272Z,100488.66
2018-11-12T02:52:10.274Z,100491.07
2018-11-12T02:54:43.726Z,100495.30
2018-11-12T02:57:17.379Z,100485.41
2018-11-12T02:59:50.743Z,100491.39
2018-11-12T03:02:24.410Z,100479.20
2018-11-12T03:04:57.790Z,100479.20
2018-11-12T03:07:31.279Z,100491.56
2018-11-12T03:10:05.281Z,100491.56
2018-11-12T03:12:38.752Z,100489.04
2018-11-12T03:15:13.850Z,100487.03
2018-11-12T03:17:47.996Z,100481.64
2018-11-12T03:20:22.645Z,100481.64
2018-11-12T03:22:56.276Z,100491.77
2018-11-12T03:25:30.319Z,100489.20
2018-11-12T03:28:03.729Z,100491.09
2018-11-12T03:30:37.351Z,100493.20
2018-11-12T03:33:11.353Z,100493.20
2018-11-12T03:35:45.023Z,100512.75
2018-11-12T03:38:19.531Z,100513.07
2018-11-12T03:40:53.281Z,100512.23
2018-11-12T03:43:26.726Z,100505.94
2018-11-12T03:46:00.373Z,100488.59
2018-11-12T03:48:34.282Z,100488.59
2018-11-12T03:51:07.799Z,100488.89
2018-11-12T03:53:41.495Z,100496.86
2018-11-12T03:56:15.032Z,100496.86
2018-11-12T03:58:48.527Z,100497.39
2018-11-12T04:01:22.057Z,100491.94
2018-11-12T04:03:55.569Z,100496.55
2018-11-12T04:06:29.579Z,100497.73
2018-11-12T04:09:03.301Z,100500.63
2018-11-12T04:11:37.052Z,100504.72
2018-11-12T04:14:11.732Z,100508.81
2018-11-12T04:16:46.133Z,100500.81
2018-11-12T04:19:20.276Z,100500.81
2018-11-12T04:21:53.760Z,100494.86
2018-11-12T04:24:26.530Z,100494.86
2018-11-12T04:26:59.341Z,100494.14
2018-11-12T04:29:32.764Z,100491.77
2018-11-12T04:32:06.730Z,100498.58
2018-11-12T04:34:40.317Z,100498.58
2018-11-12T04:37:13.777Z,100496.23
2018-11-12T04:39:47.341Z,100497.91
2018-11-12T04:42:21.277Z,100497.91
2018-11-12T04:44:54.752Z,100494.34
2018-11-12T04:47:28.354Z,100503.04
2018-11-12T04:50:02.373Z,100503.04
2018-11-12T04:52:36.287Z,100500.81
2018-11-12T04:55:12.661Z,100504.05
2018-11-12T04:57:46.716Z,100499.64
2018-11-12T05:00:28.570Z,100491.47
2018-11-12T05:03:02.341Z,100487.55
2018-11-12T05:05:35.801Z,100487.76
2018-11-12T05:08:09.533Z,100487.55
2018-11-12T05:10:43.514Z,100489.95
2018-11-12T05:13:17.058Z,100487.23
2018-11-12T05:15:50.723Z,100482.31
2018-11-12T05:18:24.285Z,100481.27
2018-11-12T05:20:57.741Z,100477.34
2018-11-12T05:23:31.338Z,100483.32
2018-11-12T05:26:05.377Z,100480.59
2018-11-12T05:28:38.786Z,100477.87
2018-11-12T05:31:12.506Z,100475.14
2018-11-12T05:33:46.038Z,100475.14
2018-11-12T05:36:19.586Z,100469.69
2018-11-12T05:38:53.415Z,100467.64
2018-11-12T05:41:26.876Z,100474.91
2018-11-12T05:43:59.251Z,100464.53
2018-11-12T05:46:33.285Z,100473.20
2018-11-12T05:49:07.266Z,100472.86
2018-11-12T05:51:40.801Z,100483.23
2018-11-12T05:54:14.461Z,100478.98
2018-11-12T05:56:48.638Z,100478.98
2018-11-12T05:59:21.689Z,100477.09
2018-11-12T06:01:54.876Z,100475.94
2018-11-12T06:04:27.089Z,100493.80
2018-11-12T06:07:01.285Z,100490.72
2018-11-12T06:09:35.285Z,100499.25
2018-11-12T06:12:09.285Z,100499.25
2018-11-12T06:14:42.581Z,100502.98
2018-11-12T06:17:15.566Z,100507.77
2018-11-12T06:19:48.551Z,100517.66
2018-11-12T06:22:21.730Z,100516.30
2018-11-12T06:24:55.554Z,100514.11
2018-11-12T06:27:30.534Z,100514.11
2018-11-12T06:30:04.057Z,100516.81
2018-11-12T06:32:38.281Z,100518.50
2018-11-12T06:35:13.545Z,100524.47
2018-11-12T06:37:48.491Z,100528.56
2018-11-12T06:40:23.281Z,100529.25
2018-11-12T06:42:57.746Z,100520.23
2018-11-12T06:45:33.058Z,100516.67
2018-11-12T06:48:06.988Z,100516.98
2018-11-12T06:50:40.569Z,100522.96
2018-11-12T06:53:14.072Z,100530.30
2018-11-12T06:55:47.587Z,100532.50
2018-11-12T06:58:21.280Z,100531.30
2018-11-12T07:00:54.731Z,100529.94
2018-11-12T07:03:28.321Z,100525.19
2018-11-12T07:06:01.777Z,100527.74
2018-11-12T07:08:35.346Z,100518.42
2018-11-12T07:11:09.271Z,100518.42
2018-11-12T07:13:43.300Z,100531.51
2018-11-12T07:16:16.983Z,100529.27
2018-11-12T07:18:50.536Z,100533.88
2018-11-12T07:21:24.541Z,100537.12
2018-11-12T07:23:58.325Z,100548.03
2018-11-12T07:26:31.781Z,100543.95
2018-11-12T07:29:05.054Z,100534.72
2018-11-12T07:31:39.277Z,100533.71
2018-11-12T07:34:12.753Z,100536.95
2018-11-12T07:36:46.368Z,100542.06
2018-11-12T07:39:19.904Z,100542.06
2018-11-12T07:41:52.271Z,100546.81
2018-11-12T07:44:25.864Z,100547.66
2018-11-12T07:46:59.534Z,100546.30
2018-11-12T07:49:33.515Z,100539.48
2018-11-12T07:52:07.292Z,100539.48
2018-11-12T07:54:41.290Z,100531.30
2018-11-12T07:57:14.719Z,100531.83
2018-11-12T07:59:48.373Z,100545.28
2018-11-12T08:02:22.056Z,100557.55
2018-11-12T08:04:55.614Z,100558.91
2018-11-12T08:07:29.291Z,100552.27
2018-11-12T08:10:02.750Z,100556.88
2018-11-12T08:12:36.373Z,100549.71
2018-11-12T08:15:12.697Z,100549.71
2018-11-12T08:17:48.591Z,100552.79
2018-11-12T08:20:23.721Z,100559.77
2018-11-12T08:22:57.391Z,100564.70
2018-11-12T08:25:30.786Z,100556.53
2018-11-12T08:29:34.802Z,100559.08
2018-11-12T08:32:08.571Z,100552.81
2018-11-12T08:34:42.485Z,100552.81
2018-11-12T08:37:15.876Z,100541.91
2018-11-12T08:39:49.598Z,100544.63
2018-11-12T08:42:23.067Z,100544.63
2018-11-12T08:44:56.601Z,100550.76
2018-11-12T08:47:30.043Z,100550.44
2018-11-12T08:50:03.668Z,100547.71
2018-11-12T08:52:37.064Z,100545.16
2018-11-12T08:55:13.871Z,100543.27
2018-11-12T08:57:55.091Z,100530.86
2018-11-12T09:00:28.721Z,100530.86
2018-11-12T09:03:01.751Z,100539.16
2018-11-12T09:05:35.306Z,100539.16
2018-11-12T09:08:09.293Z,100540.52
2018-11-12T09:10:42.750Z,100542.73
2018-11-12T09:13:15.802Z,100539.84
2018-11-12T09:15:48.428Z,100534.58
2018-11-12T09:18:21.249Z,100542.71
2018-11-12T09:20:54.747Z,100542.71
2018-11-12T09:23:28.359Z,100517.51
2018-11-12T09:26:01.522Z,100521.08
2018-11-12T09:28:34.630Z,100516.47
2018-11-12T09:31:08.982Z,100527.56
2018-11-12T09:33:41.705Z,100524.84
2018-11-12T09:36:14.722Z,100535.08
2018-11-12T09:38:48.115Z,100536.91
2018-11-12T09:41:21.504Z,100528.73
2018-11-12T09:43:54.486Z,100531.98
2018-11-12T09:46:28.270Z,100533.34
2018-11-12T09:49:01.483Z,100528.41
2018-11-12T09:51:34.516Z,100525.48
2018-11-12T09:56:56.701Z,100510.09
2018-11-12T09:59:30.737Z,100506.61
2018-11-12T10:02:03.735Z,100507.82
2018-11-12T10:04:38.616Z,100506.78
2018-11-12T10:07:12.862Z,100498.80
2018-11-12T10:09:46.708Z,100499.13
2018-11-12T10:12:19.481Z,100507.13
2018-11-12T10:14:52.897Z,100515.30
2018-11-12T10:17:27.194Z,100514.11
2018-11-12T10:19:58.287Z,100519.56
2018-11-12T10:22:32.018Z,100514.80
2018-11-12T10:25:05.583Z,100515.65
2018-11-12T10:27:39.588Z,100513.97
2018-11-12T10:30:13.588Z,100516.17
2018-11-12T10:32:47.324Z,100511.91
2018-11-12T10:35:21.272Z,100501.01
2018-11-12T10:37:55.306Z,100504.05
2018-11-12T10:40:29.370Z,100507.77
2018-11-12T10:43:02.776Z,100502.66
2018-11-12T10:45:37.577Z,100503.66
2018-11-12T10:48:11.558Z,100503.66
2018-11-12T10:50:45.282Z,100491.39
2018-11-12T10:54:15.622Z,100487.59
2018-11-12T10:56:48.569Z,100478.98
2018-11-12T10:59:21.667Z,100472.48
2018-11-12T11:01:56.289Z,100479.44
2018-11-12T11:04:32.530Z,100476.40
2018-11-12T11:07:05.696Z,100479.80
2018-11-12T11:09:39.285Z,100474.52
2018-11-12T11:12:12.477Z,100468.05
2018-11-12T11:14:45.629Z,100471.47
2018-11-12T11:17:18.741Z,100461.09
2018-11-12T11:19:51.787Z,100463.47
2018-11-12T11:22:25.285Z,100460.07
2018-11-12T11:24:58.477Z,100460.07
2018-11-12T11:27:31.559Z,100455.14
2018-11-12T11:30:05.674Z,100440.67
2018-11-12T11:32:38.692Z,100438.80
2018-11-12T11:35:14.050Z,100439.63
2018-11-12T11:37:47.482Z,100438.62
2018-11-12T11:40:24.640Z,100441.20
2018-11-12T11:42:58.201Z,100436.91
2018-11-12T11:45:31.545Z,100433.69
2018-11-12T11:48:05.401Z,100434.84
2018-11-12T11:50:38.507Z,100430.96
2018-11-12T11:53:11.546Z,100434.18
2018-11-12T11:55:44.668Z,100428.73
2018-11-12T11:58:17.696Z,100432.19
2018-11-12T12:00:50.635Z,100429.77
2018-11-12T12:03:23.600Z,100437.58
2018-11-12T12:05:56.750Z,100434.67
2018-11-12T12:08:30.294Z,100435.34
2018-11-12T12:11:03.761Z,100435.34
2018-11-12T12:13:37.338Z,100426.96
2018-11-12T12:16:11.073Z,100426.96
2018-11-12T12:18:45.038Z,100430.73
2018-11-12T12:21:18.633Z,100424.44
2018-11-12T12:23:52.320Z,100425.28
2018-11-12T12:26:26.289Z,100422.41
2018-11-12T12:29:00.297Z,100423.77
2018-11-12T12:31:33.900Z,100428.03
2018-11-12T12:34:06.296Z,100430.59
2018-11-12T12:36:40.036Z,100433.31
2018-11-12T12:39:14.743Z,100436.87
2018-11-12T12:41:48.511Z,100433.83
2018-11-12T12:44:22.051Z,100436.70
2018-11-12T12:46:55.623Z,100448.48
2018-11-12T12:49:29.619Z,100436.91
2018-11-12T12:52:03.905Z,100441.87
2018-11-12T12:54:36.301Z,100444.91
2018-11-12T12:57:10.061Z,100442.79
2018-11-12T12:59:43.574Z,100442.16
2018-11-12T13:02:17.380Z,100441.34
2018-11-12T13:04:53.685Z,100442.85
2018-11-12T13:07:24.426Z,100436.73
2018-11-12T13:09:58.292Z,100438.09
2018-11-12T13:12:31.825Z,100440.30
2018-11-12T13:15:06.121Z,100435.37
2018-11-12T13:17:39.612Z,100435.37
2018-11-12T13:20:18.564Z,100436.73
2018-11-12T13:22:52.296Z,100439.31
2018-11-12T13:25:25.750Z,100439.63
2018-11-12T13:27:59.377Z,100440.64
2018-11-12T13:30:32.762Z,100442.04
2018-11-12T13:33:06.378Z,100441.72
2018-11-12T13:35:39.777Z,100441.72
2018-11-12T13:38:13.476Z,100447.80
2018-11-12T13:40:47.381Z,100447.80
2018-11-12T13:43:20.774Z,100437.25
2018-11-12T13:45:53.381Z,100442.33
2018-11-12T13:48:26.249Z,100446.45
2018-11-12T13:50:59.748Z,100446.45
2018-11-12T13:53:33.533Z,100444.77
2018-11-12T13:56:07.773Z,100444.77
2018-11-12T13:58:41.470Z,100453.46
2018-11-12T14:01:14.875Z,100453.46
2018-11-12T14:03:47.247Z,100453.92
2018-11-12T14:06:20.705Z,100463.67
2018-11-12T14:08:54.504Z,100459.06
2018-11-12T14:11:28.511Z,100455.81
2018-11-12T14:14:02.683Z,100449.84
2018-11-12T14:16:36.086Z,100458.36
2018-11-12T14:19:09.777Z,100461.09
2018-11-12T14:21:43.584Z,100460.80
2018-11-12T14:24:17.361Z,100460.80
2018-11-12T14:26:51.022Z,100473.00
2018-11-12T14:29:24.584Z,100474.74
2018-11-12T14:31:58.431Z,100477.79
2018-11-12T14:34:32.278Z,100480.48
2018-11-12T14:37:05.773Z,100484.60
2018-11-12T14:39:40.348Z,100493.30
2018-11-12T14:42:13.745Z,100493.30
2018-11-12T14:44:47.370Z,100491.91
2018-11-12T14:47:21.053Z,100491.91
2018-11-12T14:49:54.703Z,100491.56
2018-11-12T14:52:28.333Z,100496.00
2018-11-12T14:55:01.834Z,100493.45
2018-11-12T14:57:35.483Z,100503.51
2018-11-12T15:00:30.487Z,100503.51
2018-11-12T15:03:04.052Z,100495.85
2018-11-12T15:05:38.053Z,100485.81
2018-11-12T15:08:12.054Z,100490.00
2018-11-12T15:10:45.950Z,100494.17
2018-11-12T15:13:18.289Z,100489.77
2018-11-12T15:15:51.779Z,100497.40
2018-11-12T15:18:24.415Z,100513.09
2018-11-12T15:20:57.817Z,100526.05
2018-11-12T15:23:30.963Z,100524.69
2018-11-12T15:26:03.546Z,100523.78
2018-11-12T15:28:37.056Z,100528.02
2018-11-12T15:31:10.813Z,100525.97
2018-11-12T15:33:44.372Z,100521.56
2018-11-12T15:36:18.053Z,100521.56
2018-11-12T15:38:51.545Z,100511.66
2018-11-12T15:41:25.362Z,100516.28
2018-11-12T15:43:59.316Z,100518.48
2018-11-12T15:46:33.264Z,100521.27
2018-11-12T15:49:07.727Z,100520.22
2018-11-12T15:51:41.298Z,100517.17
2018-11-12T15:54:14.758Z,100526.05
2018-11-12T15:56:48.494Z,100525.88
2018-11-12T15:59:22.007Z,100525.88
2018-11-12T16:01:55.564Z,100520.92
2018-11-12T16:04:29.019Z,100518.19
2018-11-12T16:07:02.694Z,100516.19
2018-11-12T16:09:36.222Z,100513.31
2018-11-12T16:12:09.656Z,100520.28
2018-11-12T16:14:43.310Z,100516.19
2018-11-12T16:17:17.061Z,100525.23
2018-11-12T16:19:50.603Z,100520.62
2018-11-12T16:22:24.632Z,100523.70
2018-11-12T16:24:58.371Z,100523.00
2018-11-12T16:27:32.276Z,100520.77
2018-11-12T16:30:05.856Z,100521.49
2018-11-12T16:32:39.582Z,100517.90
2018-11-12T16:35:16.241Z,100515.37
2018-11-12T16:37:50.299Z,100525.92
2018-11-12T16:40:23.640Z,100525.44
2018-11-12T16:42:56.612Z,100529.84
2018-11-12T16:45:29.502Z,100541.06
2018-11-12T16:48:02.681Z,100548.55
2018-11-12T16:50:35.654Z,100543.45
2018-11-12T16:53:09.102Z,100540.00
2018-11-12T16:55:42.206Z,100542.72
2018-11-12T16:58:15.449Z,100536.26
2018-11-12T17:00:49.362Z,100543.91
2018-11-12T17:03:22.532Z,100543.08
2018-11-12T17:05:55.647Z,100544.44
2018-11-12T17:08:28.707Z,100536.43
2018-11-12T17:11:02.339Z,100540.88
2018-11-12T17:13:35.472Z,100538.47
2018-11-12T17:16:09.272Z,100536.58
2018-11-12T17:18:42.511Z,100541.02
2018-11-12T17:21:15.542Z,100543.59
2018-11-12T17:23:48.653Z,100559.44
2018-11-12T17:26:22.775Z,100583.13
2018-11-12T17:28:55.420Z,100575.44
2018-11-12T17:31:28.298Z,100588.05
2018-11-12T17:34:01.755Z,100589.06
2018-11-12T17:36:35.567Z,100593.68
2018-11-12T17:39:11.040Z,100593.68
2018-11-12T17:41:45.052Z,100599.66
2018-11-12T17:44:18.774Z,100605.11
2018-11-12T17:46:52.679Z,100609.89
2018-11-12T17:49:26.373Z,100609.89
2018-11-12T17:51:59.808Z,100612.61
2018-11-12T17:54:33.911Z,100615.86
2018-11-12T17:57:07.523Z,100606.54
2018-11-12T17:59:41.359Z,100606.54
2018-11-12T18:02:15.603Z,100619.27
2018-11-12T18:04:49.594Z,100625.77
2018-11-12T18:07:23.689Z,100618.95
2018-11-12T18:09:57.368Z,100623.37
2018-11-12T18:12:31.380Z,100624.93
2018-11-12T18:15:04.764Z,100630.38
2018-11-12T18:17:39.051Z,100631.02
2018-11-12T18:20:17.276Z,100631.02
2018-11-12T18:22:52.298Z,100628.30
2018-11-12T18:25:25.795Z,100628.45
2018-11-12T18:27:59.620Z,100631.22
2018-11-12T18:30:34.434Z,100631.22
2018-11-12T18:33:08.280Z,100632.05
2018-11-12T18:35:42.278Z,100634.77
2018-11-12T18:38:17.035Z,100633.56
2018-11-12T18:40:50.668Z,100629.96
2018-11-12T18:43:24.619Z,100633.04
2018-11-12T18:45:58.292Z,100630.64
2018-11-12T18:48:31.807Z,100629.63
2018-11-12T18:51:05.497Z,100623.80
2018-11-12T18:53:39.269Z,100623.80
2018-11-12T18:56:12.777Z,100622.45
2018-11-12T18:58:47.278Z,100604.95
2018-11-12T19:01:21.270Z,100604.95
2018-11-12T19:04:02.507Z,100613.27
2018-11-12T19:06:36.275Z,100605.78
2018-11-12T19:09:12.680Z,100607.66
2018-11-12T19:11:46.347Z,100615.69
2018-11-12T19:14:20.534Z,100628.60
2018-11-12T19:16:54.586Z,100643.27
2018-11-12T19:19:28.372Z,100657.42
2018-11-12T19:22:02.026Z,100662.36
2018-11-12T19:24:35.649Z,100665.08
2018-11-12T19:27:09.412Z,100668.33
2018-11-12T19:29:43.047Z,100670.85
2018-11-12T19:32:16.845Z,100686.89
2018-11-12T19:34:50.510Z,100684.69
2018-11-12T19:37:24.779Z,100684.69
2018-11-12T19:39:58.776Z,100693.19
2018-11-12T19:42:31.642Z,100693.19
2018-11-12T19:45:04.426Z,100684.16
2018-11-12T19:47:38.139Z,100692.02
2018-11-12T19:50:17.274Z,100692.52
2018-11-12T19:52:52.869Z,100693.39
2018-11-12T19:55:25.307Z,100699.00
2018-11-12T19:57:58.875Z,100694.08
2018-11-12T20:00:31.732Z,100700.37
2018-11-12T20:03:05.383Z,100697.27
2018-11-12T20:05:39.007Z,100699.16
2018-11-12T20:08:12.627Z,100703.94
2018-11-12T20:10:46.343Z,100704.78
2018-11-12T20:13:20.280Z,100709.75
2018-11-12T20:15:53.770Z,100728.83
2018-11-12T20:18:27.542Z,100737.17
2018-11-12T20:21:01.305Z,100737.17
2018-11-12T20:23:34.804Z,100737.69
2018-11-12T20:26:08.609Z,100723.91
2018-11-12T20:28:42.286Z,100723.91
2018-11-12T20:31:16.381Z,100730.20
2018-11-12T20:33:50.067Z,100715.53
2018-11-12T20:36:23.711Z,100709.76
2018-11-12T20:38:57.353Z,100718.25
2018-11-12T20:41:31.326Z,100717.09
2018-11-12T20:44:05.009Z,100713.68
2018-11-12T20:48:06.724Z,100715.52
2018-11-12T20:50:40.384Z,100707.35
2018-11-12T20:53:14.422Z,100709.91
2018-11-12T20:55:48.408Z,100704.61
2018-11-12T20:58:21.791Z,100706.66
2018-11-12T21:00:55.570Z,100705.83
2018-11-12T21:03:29.332Z,100705.83
2018-11-12T21:06:03.274Z,100709.90
2018-11-12T21:08:36.780Z,100709.22
2018-11-12T21:11:10.631Z,100704.94
2018-11-12T21:13:44.579Z,100704.94
2018-11-12T21:16:18.340Z,100689.62
2018-11-12T21:18:52.550Z,100681.44
2018-11-12T21:21:26.575Z,100677.87
2018-11-12T21:24:00.540Z,100672.73
2018-11-12T21:26:34.154Z,100670.02
2018-11-12T21:29:07.863Z,100677.03
2018-11-12T21:31:41.784Z,100665.31
2018-11-12T21:34:15.590Z,100672.95
2018-11-12T21:36:49.318Z,100672.95
2018-11-12T21:39:22.824Z,100681.28
2018-11-12T21:41:56.572Z,100691.50
2018-11-12T21:44:30.287Z,100691.50
2018-11-12T21:47:03.763Z,100691.67
2018-11-12T21:49:37.619Z,100690.00
2018-11-12T21:52:11.786Z,100690.00
2018-11-12T21:54:45.584Z,100677.73
2018-11-12T21:57:19.535Z,100677.73
2018-11-12T21:59:53.412Z,100686.58
2018-11-12T22:02:27.589Z,100693.08
2018-11-12T22:05:02.291Z,100691.20
2018-11-12T22:07:35.784Z,100696.64
2018-11-12T22:10:12.670Z,100702.48
2018-11-12T22:12:47.581Z,100702.48
2018-11-12T22:15:21.285Z,100710.44
2018-11-12T22:17:54.769Z,100708.76
2018-11-12T22:20:29.519Z,100709.28
2018-11-12T22:23:03.559Z,100709.28
2018-11-12T22:25:37.597Z,100717.10
2018-11-12T22:28:10.603Z,100714.21
2018-11-12T22:30:43.634Z,100710.81
2018-11-12T22:33:16.643Z,100705.36
2018-11-12T22:35:49.780Z,100712.69
2018-11-12T22:38:23.280Z,100707.56
2018-11-12T22:40:57.987Z,100707.56
2018-11-12T22:43:31.315Z,100716.26
2018-11-12T22:46:04.477Z,100712.69
2018-11-12T22:48:37.509Z,100725.80
2018-11-12T22:51:11.525Z,100715.58
2018-11-12T22:53:44.581Z,100718.82
2018-11-12T22:56:22.074Z,100718.63
2018-11-12T22:58:55.558Z,100722.02
2018-11-12T23:01:28.628Z,100716.42
2018-11-12T23:04:01.638Z,100724.91
2018-11-12T23:06:34.579Z,100729.52
2018-11-12T23:09:15.883Z,100731.73
2018-11-12T23:11:48.469Z,100734.98
2018-11-12T23:14:21.643Z,100731.41
2018-11-12T23:16:54.590Z,100728.16
2018-11-12T23:19:27.584Z,100725.44
2018-11-12T23:22:00.714Z,100726.48
2018-11-12T23:24:33.726Z,100730.36
2018-11-12T23:27:07.130Z,100731.93
2018-11-12T23:29:40.574Z,100727.00
2018-11-12T23:32:14.282Z,100732.45
2018-11-12T23:34:50.125Z,100735.34
2018-11-12T23:37:24.051Z,100736.54
2018-11-12T23:39:57.575Z,100734.82
2018-11-12T23:42:31.280Z,100740.11
2018-11-12T23:45:04.757Z,100724.44
2018-11-12T23:47:39.025Z,100732.45
2018-11-12T23:50:24.059Z,100732.45
2018-11-12T23:52:59.056Z,100729.56
2018-11-12T23:55:33.057Z,100726.48
2018-11-12T23:58:06.671Z,100723.44
